Arnoldsville, GA

3:07 PM EDT on August 22, 2014 (GMT -0400)
Wyndfield | Change Station
CLOSE
Current Station
Personal Weather Station
Location: Athens-Clarke County, GA
Elevation: 647 ft
Nearby Weather Stations
Active Advisory: Heat Advisory Active Notice: Public Information Statement

Elev 647 ft 33.91 °N, 83.30 °W | Updated 34 seconds ago

Scattered Clouds
Scattered Clouds
95.5 °F
Feels Like 104 °F
N
0.0
Wind Variable Wind from West
Gusts 0.0 mph

Today
High -- | Low -- °F
--% Chance of Precip.
Yesterday
High -- | Low -- °F
Precip. -- in
6:59 AM 8:11 PM
Waning Crescent, 7% visible
Pressure 30.03 in
Visibility 10.0 miles
Clouds Few 5000 ft
Scattered Clouds 7500 ft
Heat Index 104 °F
Dew Point 72 °F
Humidity 47%
Rainfall 0.00 in
Snow Depth Not available.
UV 8 out of 12
Pollen 8.80 out of 12
Air Quality Not available.
Flu Activity Not available.
METAR KAHN 221851Z 33007KT 290V010 10SM FEW050 SCT075 36/21 A3005 RMK AO2 SLP167 T03560206

More Conditions Fewer Conditions

Pressure 30.03 in
Visibility 10.0 miles
Clouds Few 5000 ft
Scattered Clouds 7500 ft
Heat Index 104 °F
Dew Point 72 °F
Humidity 47%
Rainfall 0.00 in
Snow Depth Not available.
UV 8 out of 12
Pollen 8.80 out of 12
Air Quality Not available.
Flu Activity Not available.
METAR KAHN 221851Z 33007KT 290V010 10SM FEW050 SCT075 36/21 A3005 RMK AO2 SLP167 T03560206

More Conditions Fewer Conditions

10-Day Weather Forecast

Almanac

Astronomy

Aug. 22, 2014 Rise Set
Actual Time 6:59 AM EDT 8:11 PM EDT
Civil Twilight 6:33 AM EDT 8:37 PM EDT
Nautical Twilight 6:03 AM EDT 9:08 PM EDT
Astronomical Twilight 5:30 AM EDT 9:40 PM EDT
Moon 4:25 AM EDT 6:16 PM EDT
Length of Visible Light 14h 03m
Length of Day
13h 11m
Tomorrow will be 1m 55s shorter.
Waning Crescent, 7% of the Moon is Illuminated
Today
Waning Crescent
Aug 25
New
Sep 2
First Quarter
Sep 8
Full
Sep 15
Last Quarter

Today's Extremes

State Highs State Lows

Community

WunderPhotos

Upload Photos

1,746,220 photos uploaded!

Nearby

Snow Depth

Station Depth Elevation
No new snow has been reported.

Earthquake Activity

City Distance Mag. Time & Date
No recent earthquake activity has been reported nearby.
Minimum magnitude displayed is 2.5.

Coastal Water Temperatures

Place Temperature
No Stations Reporting

Nearby Weather Stations